sensor_id;sensor_type;location;lat;lon;timestamp;temperature;humidity
18268;DHT22;9260;49.998;19.880;2022-08-19T00:07:43;17.70;99.90
18268;DHT22;9260;49.998;19.880;2022-08-19T00:17:49;17.50;99.90
18268;DHT22;9260;49.998;19.880;2022-08-19T00:27:53;17.50;99.90
18268;DHT22;9260;49.998;19.880;2022-08-19T00:37:59;17.40;99.90
18268;DHT22;9260;49.998;19.880;2022-08-19T00:48:03;17.20;99.90
18268;DHT22;9260;49.998;19.880;2022-08-19T00:58:19;17.10;99.90
18268;DHT22;9260;49.998;19.880;2022-08-19T01:08:24;16.90;99.90
18268;DHT22;9260;49.998;19.880;2022-08-19T01:18:30;16.80;99.90
18268;DHT22;9260;49.998;19.880;2022-08-19T01:28:38;16.70;99.90
18268;DHT22;9260;49.998;19.880;2022-08-19T01:38:43;16.60;99.90
18268;DHT22;9260;49.998;19.880;2022-08-19T01:48:49;16.40;99.90
18268;DHT22;9260;49.998;19.880;2022-08-19T01:58:55;16.20;99.90
18268;DHT22;9260;49.998;19.880;2022-08-19T02:09:04;16.00;99.90
18268;DHT22;9260;49.998;19.880;2022-08-19T02:19:08;15.90;99.90
18268;DHT22;9260;49.998;19.880;2022-08-19T02:29:13;15.80;99.90
18268;DHT22;9260;49.998;19.880;2022-08-19T02:39:18;15.80;99.90
18268;DHT22;9260;49.998;19.880;2022-08-19T02:49:23;15.70;99.90
18268;DHT22;9260;49.998;19.880;2022-08-19T02:59:30;15.60;99.90
18268;DHT22;9260;49.998;19.880;2022-08-19T03:09:36;15.50;99.90
18268;DHT22;9260;49.998;19.880;2022-08-19T03:19:41;15.40;99.90
18268;DHT22;9260;49.998;19.880;2022-08-19T03:29:46;15.40;99.90
18268;DHT22;9260;49.998;19.880;2022-08-19T03:39:50;15.40;99.90
18268;DHT22;9260;49.998;19.880;2022-08-19T03:49:55;15.30;99.90
18268;DHT22;9260;49.998;19.880;2022-08-19T03:59:59;15.40;99.90
18268;DHT22;9260;49.998;19.880;2022-08-19T04:10:16;15.50;99.90
18268;DHT22;9260;49.998;19.880;2022-08-19T04:20:20;15.60;99.90
18268;DHT22;9260;49.998;19.880;2022-08-19T04:30:25;15.90;99.90
18268;DHT22;9260;49.998;19.880;2022-08-19T04:40:29;16.20;99.90
18268;DHT22;9260;49.998;19.880;2022-08-19T04:50:53;16.50;99.90
18268;DHT22;9260;49.998;19.880;2022-08-19T05:00:59;16.90;99.90
18268;DHT22;9260;49.998;19.880;2022-08-19T05:11:14;17.50;99.90
18268;DHT22;9260;49.998;19.880;2022-08-19T05:21:20;18.00;99.90
18268;DHT22;9260;49.998;19.880;2022-08-19T05:31:43;18.70;99.90
18268;DHT22;9260;49.998;19.880;2022-08-19T05:41:53;19.50;99.90
18268;DHT22;9260;49.998;19.880;2022-08-19T05:52:01;20.20;99.90
18268;DHT22;9260;49.998;19.880;2022-08-19T06:02:07;21.10;99.90
18268;DHT22;9260;49.998;19.880;2022-08-19T06:12:12;22.10;99.90
18268;DHT22;9260;49.998;19.880;2022-08-19T06:22:16;23.50;99.90
18268;DHT22;9260;49.998;19.880;2022-08-19T06:32:20;24.80;99.90
18268;DHT22;9260;49.998;19.880;2022-08-19T06:42:24;26.10;99.90
18268;DHT22;9260;49.998;19.880;2022-08-19T06:52:29;27.20;99.90
18268;DHT22;9260;49.998;19.880;2022-08-19T07:02:35;28.60;99.90
18268;DHT22;9260;49.998;19.880;2022-08-19T07:12:40;29.80;99.90
18268;DHT22;9260;49.998;19.880;2022-08-19T07:22:44;30.30;99.90
18268;DHT22;9260;49.998;19.880;2022-08-19T07:32:49;32.30;99.90
18268;DHT22;9260;49.998;19.880;2022-08-19T07:42:54;34.40;99.90
18268;DHT22;9260;49.998;19.880;2022-08-19T07:52:59;36.40;99.90
18268;DHT22;9260;49.998;19.880;2022-08-19T08:03:03;38.10;99.90
18268;DHT22;9260;49.998;19.880;2022-08-19T08:13:11;40.10;99.90
18268;DHT22;9260;49.998;19.880;2022-08-19T08:23:15;41.70;99.90
18268;DHT22;9260;49.998;19.880;2022-08-19T08:33:29;39.80;99.90
18268;DHT22;9260;49.998;19.880;2022-08-19T08:43:38;41.50;99.90
18268;DHT22;9260;49.998;19.880;2022-08-19T08:53:47;44.20;99.90
18268;DHT22;9260;49.998;19.880;2022-08-19T09:03:57;45.70;99.90
18268;DHT22;9260;49.998;19.880;2022-08-19T09:14:14;47.60;99.90
18268;DHT22;9260;49.998;19.880;2022-08-19T09:24:46;48.80;99.90
18268;DHT22;9260;49.998;19.880;2022-08-19T09:34:51;50.60;99.90
18268;DHT22;9260;49.998;19.880;2022-08-19T09:44:56;52.00;1.00
18268;DHT22;9260;49.998;19.880;2022-08-19T09:55:03;53.10;1.00
18268;DHT22;9260;49.998;19.880;2022-08-19T10:05:09;53.80;1.00
18268;DHT22;9260;49.998;19.880;2022-08-19T10:15:34;52.60;1.00
18268;DHT22;9260;49.998;19.880;2022-08-19T10:25:48;53.50;1.00
18268;DHT22;9260;49.998;19.880;2022-08-19T10:36:00;54.30;1.00
18268;DHT22;9260;49.998;19.880;2022-08-19T10:46:05;54.40;1.00
18268;DHT22;9260;49.998;19.880;2022-08-19T10:56:18;55.90;1.00
18268;DHT22;9260;49.998;19.880;2022-08-19T11:06:40;56.80;1.00
18268;DHT22;9260;49.998;19.880;2022-08-19T11:16:47;58.30;1.00
18268;DHT22;9260;49.998;19.880;2022-08-19T11:26:53;60.60;1.00
18268;DHT22;9260;49.998;19.880;2022-08-19T11:37:01;59.80;1.00
18268;DHT22;9260;49.998;19.880;2022-08-19T11:47:05;58.80;1.00
18268;DHT22;9260;49.998;19.880;2022-08-19T11:57:11;60.20;1.00
18268;DHT22;9260;49.998;19.880;2022-08-19T12:07:17;60.30;1.00
18268;DHT22;9260;49.998;19.880;2022-08-19T12:17:22;60.00;1.00
18268;DHT22;9260;49.998;19.880;2022-08-19T12:27:25;60.30;1.00
18268;DHT22;9260;49.998;19.880;2022-08-19T12:37:43;59.20;1.00
18268;DHT22;9260;49.998;19.880;2022-08-19T12:47:58;58.30;1.00
18268;DHT22;9260;49.998;19.880;2022-08-19T12:58:23;58.00;1.00
18268;DHT22;9260;49.998;19.880;2022-08-19T13:08:28;56.20;1.00
18268;DHT22;9260;49.998;19.880;2022-08-19T13:18:33;50.60;1.00
18268;DHT22;9260;49.998;19.880;2022-08-19T13:28:36;45.00;99.90
18268;DHT22;9260;49.998;19.880;2022-08-19T13:39:10;42.00;99.90
18268;DHT22;9260;49.998;19.880;2022-08-19T13:49:14;39.30;99.90
18268;DHT22;9260;49.998;19.880;2022-08-19T13:59:20;38.50;99.90
18268;DHT22;9260;49.998;19.880;2022-08-19T14:09:23;37.40;99.90
18268;DHT22;9260;49.998;19.880;2022-08-19T14:19:28;36.50;99.90
18268;DHT22;9260;49.998;19.880;2022-08-19T14:29:32;35.70;99.90
18268;DHT22;9260;49.998;19.880;2022-08-19T14:39:38;35.60;99.90
18268;DHT22;9260;49.998;19.880;2022-08-19T14:49:42;34.90;99.90
18268;DHT22;9260;49.998;19.880;2022-08-19T14:59:50;34.70;99.90
18268;DHT22;9260;49.998;19.880;2022-08-19T15:09:54;34.30;99.90
18268;DHT22;9260;49.998;19.880;2022-08-19T15:20:00;34.10;99.90
18268;DHT22;9260;49.998;19.880;2022-08-19T15:30:06;34.00;99.90
18268;DHT22;9260;49.998;19.880;2022-08-19T15:40:12;33.50;99.90
18268;DHT22;9260;49.998;19.880;2022-08-19T15:50:18;33.10;99.90
18268;DHT22;9260;49.998;19.880;2022-08-19T16:00:24;32.70;99.90
18268;DHT22;9260;49.998;19.880;2022-08-19T16:10:54;32.20;99.90
18268;DHT22;9260;49.998;19.880;2022-08-19T16:20:59;31.50;99.90
18268;DHT22;9260;49.998;19.880;2022-08-19T16:31:03;30.70;99.90
18268;DHT22;9260;49.998;19.880;2022-08-19T16:41:08;30.00;99.90
18268;DHT22;9260;49.998;19.880;2022-08-19T16:51:15;29.40;99.90
18268;DHT22;9260;49.998;19.880;2022-08-19T17:01:21;28.90;99.90
18268;DHT22;9260;49.998;19.880;2022-08-19T17:11:26;28.40;99.90
18268;DHT22;9260;49.998;19.880;2022-08-19T17:21:36;28.00;99.90
18268;DHT22;9260;49.998;19.880;2022-08-19T17:31:41;27.70;99.90
18268;DHT22;9260;49.998;19.880;2022-08-19T17:41:47;27.30;99.90
18268;DHT22;9260;49.998;19.880;2022-08-19T17:51:51;27.00;99.90
18268;DHT22;9260;49.998;19.880;2022-08-19T18:01:56;26.80;99.90
18268;DHT22;9260;49.998;19.880;2022-08-19T18:12:01;26.50;99.90
18268;DHT22;9260;49.998;19.880;2022-08-19T18:22:08;26.20;99.90
18268;DHT22;9260;49.998;19.880;2022-08-19T18:32:13;25.90;99.90
18268;DHT22;9260;49.998;19.880;2022-08-19T18:42:26;25.70;99.90
18268;DHT22;9260;49.998;19.880;2022-08-19T18:53:02;25.60;99.90
18268;DHT22;9260;49.998;19.880;2022-08-19T19:03:07;25.20;99.90
18268;DHT22;9260;49.998;19.880;2022-08-19T19:13:13;24.60;99.90
18268;DHT22;9260;49.998;19.880;2022-08-19T19:23:20;23.80;99.90
18268;DHT22;9260;49.998;19.880;2022-08-19T19:33:24;23.10;99.90
18268;DHT22;9260;49.998;19.880;2022-08-19T19:43:30;22.50;99.90
18268;DHT22;9260;49.998;19.880;2022-08-19T19:53:41;22.10;99.90
18268;DHT22;9260;49.998;19.880;2022-08-19T20:03:47;21.70;99.90
18268;DHT22;9260;49.998;19.880;2022-08-19T20:13:51;21.50;99.90
18268;DHT22;9260;49.998;19.880;2022-08-19T20:23:57;21.40;99.90
18268;DHT22;9260;49.998;19.880;2022-08-19T20:34:11;21.30;99.90
18268;DHT22;9260;49.998;19.880;2022-08-19T20:44:16;21.10;99.90
18268;DHT22;9260;49.998;19.880;2022-08-19T20:54:20;20.90;99.90
18268;DHT22;9260;49.998;19.880;2022-08-19T21:04:26;20.70;99.90
18268;DHT22;9260;49.998;19.880;2022-08-19T21:14:30;20.60;99.90
18268;DHT22;9260;49.998;19.880;2022-08-19T21:24:36;20.50;99.90
18268;DHT22;9260;49.998;19.880;2022-08-19T21:34:40;20.50;99.90
18268;DHT22;9260;49.998;19.880;2022-08-19T21:44:48;20.40;99.90
18268;DHT22;9260;49.998;19.880;2022-08-19T21:54:54;20.30;99.90
18268;DHT22;9260;49.998;19.880;2022-08-19T22:04:59;20.20;99.90
18268;DHT22;9260;49.998;19.880;2022-08-19T22:15:04;20.10;99.90
18268;DHT22;9260;49.998;19.880;2022-08-19T22:25:14;19.90;99.90
18268;DHT22;9260;49.998;19.880;2022-08-19T22:35:35;19.60;99.90
18268;DHT22;9260;49.998;19.880;2022-08-19T22:45:42;19.50;99.90
18268;DHT22;9260;49.998;19.880;2022-08-19T22:55:46;19.50;99.90
18268;DHT22;9260;49.998;19.880;2022-08-19T23:05:51;19.40;99.90
18268;DHT22;9260;49.998;19.880;2022-08-19T23:15:57;19.30;99.90
18268;DHT22;9260;49.998;19.880;2022-08-19T23:26:03;19.20;99.90
18268;DHT22;9260;49.998;19.880;2022-08-19T23:36:15;19.10;99.90
18268;DHT22;9260;49.998;19.880;2022-08-19T23:46:21;18.90;99.90
18268;DHT22;9260;49.998;19.880;2022-08-19T23:56:29;18.60;99.90
